Time;durP1;ratioP1;P1;durP2;ratioP2;P2;SDS_P1;SDS_P2;PMS_P1;PMS_P2;Temp;Humidity;BMP_temperature;BMP_pressure;BME280_temperature;BME280_humidity;BME280_pressure;Samples;Min_cycle;Max_cycle;Signal;HPM_P1;HPM_P2
2022/10/24 00:01:46;;;;;;;3.55;2.92;;;17.80;99.90;;;;;;4993322;28;20076;-89
2022/10/24 00:04:12;;;;;;;5.38;2.42;;;17.60;99.90;;;;;;4993604;28;20381;-89
2022/10/24 00:06:40;;;;;;;4.28;2.92;;;17.50;99.90;;;;;;5003240;28;20041;-89
2022/10/24 00:09:06;;;;;;;4.72;2.97;;;17.50;99.90;;;;;;5012981;28;20053;-89
2022/10/24 00:11:32;;;;;;;4.50;2.60;;;17.40;99.90;;;;;;5012601;28;20030;-89
2022/10/24 00:13:58;;;;;;;4.80;2.80;;;17.50;99.90;;;;;;5013113;28;20105;-89
2022/10/24 00:16:25;;;;;;;5.32;2.65;;;17.60;99.90;;;;;;5010384;28;20527;-89
2022/10/24 00:18:51;;;;;;;5.00;2.65;;;17.50;99.90;;;;;;5012751;28;20026;-89
2022/10/24 00:21:17;;;;;;;4.22;2.67;;;17.50;99.90;;;;;;5012624;28;20026;-89
2022/10/24 00:23:42;;;;;;;3.97;2.78;;;17.30;99.90;;;;;;5012620;28;20572;-89
2022/10/24 00:26:10;;;;;;;7.90;3.03;;;17.50;99.90;;;;;;5012643;28;20408;-89
2022/10/24 00:28:37;;;;;;;8.07;3.22;;;17.40;99.90;;;;;;5012887;28;20038;-89
2022/10/24 00:31:04;;;;;;;7.57;3.10;;;17.40;99.90;;;;;;5012228;28;20026;-89
2022/10/24 00:33:30;;;;;;;4.90;2.85;;;17.50;99.90;;;;;;5012708;28;20092;-89
2022/10/24 00:35:55;;;;;;;5.63;2.65;;;17.70;99.90;;;;;;5012802;28;20489;-89
2022/10/24 00:38:21;;;;;;;4.32;2.72;;;17.60;99.90;;;;;;5012385;28;20512;-89
2022/10/24 00:40:47;;;;;;;5.53;3.40;;;17.60;99.90;;;;;;5012501;28;20479;-89
2022/10/24 00:43:24;;;;;;;5.40;2.92;;;17.70;99.90;;;;;;5012362;28;20026;-89
2022/10/24 00:45:55;;;;;;;5.30;3.13;;;17.60;99.90;;;;;;5012354;28;20018;-89
2022/10/24 00:48:23;;;;;;;7.57;3.65;;;17.60;99.90;;;;;;5027467;28;20100;-89
2022/10/24 00:50:54;;;;;;;6.13;2.95;;;17.60;99.90;;;;;;5007770;28;20103;-89
2022/10/24 00:53:21;;;;;;;6.03;2.95;;;17.60;99.90;;;;;;4992972;28;20149;-89
2022/10/24 00:55:50;;;;;;;5.50;3.60;;;17.60;99.90;;;;;;4992746;28;20026;-89
2022/10/24 00:58:19;;;;;;;7.05;3.97;;;17.50;99.90;;;;;;4992816;28;20039;-89
2022/10/24 01:00:45;;;;;;;7.15;3.97;;;17.50;99.90;;;;;;4992646;28;20069;-89
2022/10/24 01:03:11;;;;;;;4.85;3.05;;;17.60;99.90;;;;;;4992608;28;20031;-89
2022/10/24 01:05:53;;;;;;;6.10;3.30;;;17.60;99.90;;;;;;4994767;28;20046;-89
2022/10/24 01:08:25;;;;;;;5.07;3.35;;;17.70;99.90;;;;;;5012403;28;20101;-89
2022/10/24 01:10:57;;;;;;;6.13;3.70;;;17.60;99.90;;;;;;5010507;28;20516;-89
2022/10/24 01:13:56;;;;;;;5.47;3.42;;;17.50;99.90;;;;;;5010947;28;20088;-90
2022/10/24 01:16:45;;;;;;;4.60;2.72;;;17.60;99.90;;;;;;5012109;28;20042;-89
2022/10/24 01:19:39;;;;;;;4.47;3.00;;;17.50;99.90;;;;;;5011937;28;20045;-89
2022/10/24 01:22:20;;;;;;;5.65;3.30;;;17.50;99.90;;;;;;5010934;28;20037;-89
2022/10/24 01:25:28;;;;;;;6.30;3.15;;;17.50;99.90;;;;;;5026972;28;20050;-88
2022/10/24 01:27:57;;;;;;;7.70;3.58;;;17.40;99.90;;;;;;5014510;28;20500;-89
2022/10/24 01:30:23;;;;;;;7.50;3.30;;;17.30;99.90;;;;;;5014513;28;20033;-89
2022/10/24 01:33:08;;;;;;;6.18;3.40;;;17.30;99.90;;;;;;5014361;28;20026;-89
2022/10/24 01:35:39;;;;;;;8.07;3.53;;;17.20;99.90;;;;;;5014602;28;20040;-89
2022/10/24 01:38:25;;;;;;;6.13;3.53;;;17.10;99.90;;;;;;5015954;28;20026;-89
2022/10/24 01:41:02;;;;;;;6.50;3.45;;;17.20;99.90;;;;;;5015410;28;20030;-89
2022/10/24 01:43:33;;;;;;;5.45;3.97;;;17.30;99.90;;;;;;5015998;28;20025;-89
2022/10/24 01:46:05;;;;;;;5.63;3.42;;;17.50;99.90;;;;;;5015375;28;20113;-89
2022/10/24 01:48:36;;;;;;;6.50;3.70;;;17.40;99.90;;;;;;5015485;28;20084;-89
2022/10/24 01:51:04;;;;;;;4.57;3.28;;;17.40;99.90;;;;;;5015551;28;20033;-89
2022/10/24 01:53:30;;;;;;;4.82;3.30;;;17.30;99.90;;;;;;5015636;28;20072;-89
2022/10/24 01:55:57;;;;;;;5.25;3.53;;;17.30;99.90;;;;;;5013947;28;20052;-89
2022/10/24 01:58:23;;;;;;;6.00;2.80;;;17.30;99.90;;;;;;5015461;28;20037;-89
2022/10/24 02:00:51;;;;;;;5.45;3.22;;;17.30;99.90;;;;;;5015038;28;20038;-89
2022/10/24 02:03:28;;;;;;;5.75;3.58;;;17.30;99.90;;;;;;5015478;28;20050;-89
2022/10/24 02:06:28;;;;;;;5.50;3.05;;;17.40;99.90;;;;;;5013913;28;20026;-89
2022/10/24 02:09:00;;;;;;;6.47;3.78;;;17.20;99.90;;;;;;5015065;28;20101;-89
2022/10/24 02:11:25;;;;;;;5.95;3.88;;;17.10;99.90;;;;;;5015104;28;20030;-89
2022/10/24 02:13:58;;;;;;;5.53;3.80;;;17.20;99.90;;;;;;5015276;28;20030;-89
2022/10/24 02:16:24;;;;;;;5.80;4.00;;;17.30;99.90;;;;;;5029838;28;20117;-90
2022/10/24 02:18:52;;;;;;;6.93;3.80;;;17.20;99.90;;;;;;5014983;28;20032;-89
2022/10/24 02:21:35;;;;;;;8.25;4.40;;;17.20;99.90;;;;;;5014934;28;20034;-89
2022/10/24 02:24:04;;;;;;;9.40;3.63;;;17.30;99.90;;;;;;5015078;28;20049;-88
2022/10/24 02:27:00;;;;;;;6.53;3.88;;;17.40;99.90;;;;;;5013502;28;20112;-89
2022/10/24 02:29:35;;;;;;;5.65;3.83;;;17.20;99.90;;;;;;5014929;28;20108;-89
2022/10/24 02:32:06;;;;;;;6.25;3.50;;;17.10;99.90;;;;;;5013349;28;20038;-89
2022/10/24 02:34:34;;;;;;;9.65;4.07;;;17.00;99.90;;;;;;5030085;28;20037;-89
2022/10/24 02:37:02;;;;;;;8.32;4.13;;;17.00;99.90;;;;;;5014803;28;20049;-89
2022/10/24 02:39:30;;;;;;;8.13;4.10;;;16.80;99.90;;;;;;5028918;28;20022;-89
2022/10/24 02:41:58;;;;;;;7.28;4.18;;;16.80;99.90;;;;;;5014334;28;20053;-89
2022/10/24 02:44:24;;;;;;;5.25;3.65;;;16.80;99.90;;;;;;5014577;28;20022;-89
2022/10/24 02:46:53;;;;;;;7.20;3.88;;;16.80;99.90;;;;;;5014230;28;20037;-89
2022/10/24 02:49:19;;;;;;;5.40;3.65;;;16.80;99.90;;;;;;5014830;28;20026;-89
2022/10/24 02:51:46;;;;;;;4.18;3.25;;;16.80;99.90;;;;;;5029751;28;20498;-89
2022/10/24 02:54:12;;;;;;;7.00;3.30;;;16.80;99.90;;;;;;5014806;28;20026;-89
2022/10/24 02:56:47;;;;;;;7.90;3.42;;;16.90;99.90;;;;;;5014541;28;20096;-89
2022/10/24 02:59:12;;;;;;;4.57;3.33;;;17.00;99.90;;;;;;5014248;28;20038;-89
2022/10/24 03:01:38;;;;;;;5.78;3.28;;;17.00;99.90;;;;;;5012723;28;20466;-89
2022/10/24 03:04:04;;;;;;;4.38;2.88;;;17.00;99.90;;;;;;5029406;28;20022;-89
2022/10/24 03:06:30;;;;;;;4.40;3.47;;;17.10;99.90;;;;;;5029146;28;20022;-89
2022/10/24 03:08:55;;;;;;;6.15;3.33;;;17.20;99.90;;;;;;5014251;28;20068;-89
2022/10/24 03:11:21;;;;;;;3.83;3.03;;;17.30;99.90;;;;;;5029081;28;20081;-89
2022/10/24 03:13:47;;;;;;;9.60;3.60;;;17.30;99.90;;;;;;5014013;28;20060;-89
2022/10/24 03:16:12;;;;;;;4.68;2.97;;;17.30;99.90;;;;;;5013965;28;20509;-89
2022/10/24 03:18:38;;;;;;;5.05;3.35;;;17.20;99.90;;;;;;5014025;28;20026;-89
2022/10/24 03:21:04;;;;;;;6.68;3.72;;;17.30;99.90;;;;;;5013504;28;20488;-89
2022/10/24 03:23:30;;;;;;;7.60;3.90;;;17.30;99.90;;;;;;5014058;28;20385;-89
2022/10/24 03:25:56;;;;;;;6.30;3.63;;;17.40;99.90;;;;;;5013568;28;20073;-89
2022/10/24 03:28:22;;;;;;;5.30;3.75;;;17.40;99.90;;;;;;5013425;28;20093;-89
2022/10/24 03:30:48;;;;;;;6.22;3.35;;;17.20;99.90;;;;;;5013505;28;20026;-89
2022/10/24 03:33:14;;;;;;;6.20;3.72;;;17.10;99.90;;;;;;5013630;28;20390;-89
2022/10/24 03:35:40;;;;;;;9.20;3.88;;;17.10;99.90;;;;;;5012303;28;20030;-89
2022/10/24 03:38:07;;;;;;;5.95;3.40;;;17.20;99.90;;;;;;5013742;28;20494;-89
2022/10/24 03:40:34;;;;;;;5.53;3.20;;;17.30;99.90;;;;;;5013272;28;20121;-89
2022/10/24 03:42:59;;;;;;;7.35;3.58;;;17.30;99.90;;;;;;5012763;28;20026;-89
2022/10/24 03:45:25;;;;;;;6.95;3.50;;;17.40;99.90;;;;;;5013367;28;20137;-89
2022/10/24 03:47:51;;;;;;;5.72;3.67;;;17.40;99.90;;;;;;5013181;28;20032;-89
2022/10/24 03:50:17;;;;;;;6.63;4.25;;;17.40;99.90;;;;;;5008574;28;20034;-88
2022/10/24 03:52:43;;;;;;;5.82;4.03;;;17.30;99.90;;;;;;4993868;28;20026;-89
2022/10/24 03:55:09;;;;;;;8.95;4.30;;;17.30;99.90;;;;;;5008688;28;20030;-89
2022/10/24 03:57:35;;;;;;;8.75;4.15;;;17.20;99.90;;;;;;5008234;28;20511;-88
2022/10/24 04:00:01;;;;;;;6.72;3.83;;;17.10;99.90;;;;;;5008332;28;20068;-88
2022/10/24 04:02:27;;;;;;;7.43;4.43;;;17.20;99.90;;;;;;4992086;28;20559;-89
2022/10/24 04:04:52;;;;;;;5.10;3.75;;;16.90;99.90;;;;;;4993508;28;20029;-89
2022/10/24 04:07:18;;;;;;;7.63;3.88;;;16.90;99.90;;;;;;5009020;28;20029;-89
2022/10/24 04:09:44;;;;;;;10.18;4.57;;;17.00;99.90;;;;;;5028150;28;20022;-89
2022/10/24 04:12:09;;;;;;;6.68;4.38;;;17.10;99.90;;;;;;5011106;28;20030;-88
2022/10/24 04:14:35;;;;;;;7.13;3.80;;;17.10;99.90;;;;;;5027706;28;20508;-89
2022/10/24 04:17:01;;;;;;;8.15;4.07;;;17.10;99.90;;;;;;5012781;28;20034;-89
2022/10/24 04:19:27;;;;;;;8.30;4.05;;;17.00;99.90;;;;;;5027922;28;20060;-88
2022/10/24 04:21:52;;;;;;;7.85;4.55;;;17.10;99.90;;;;;;5011280;28;20504;-89
2022/10/24 04:24:18;;;;;;;6.22;3.90;;;17.10;99.90;;;;;;5012666;28;20476;-88
2022/10/24 04:26:44;;;;;;;5.00;3.78;;;17.00;99.90;;;;;;5012825;28;20025;-88
2022/10/24 04:29:09;;;;;;;7.18;4.22;;;16.90;99.90;;;;;;5027618;28;20483;-88
2022/10/24 04:31:35;;;;;;;9.13;4.53;;;16.80;99.90;;;;;;5011013;28;20397;-88
2022/10/24 04:34:01;;;;;;;6.93;4.28;;;16.80;99.90;;;;;;5012596;28;20076;-88
2022/10/24 04:36:26;;;;;;;6.25;4.43;;;16.90;99.90;;;;;;5012417;28;20034;-88
2022/10/24 04:38:52;;;;;;;6.88;4.45;;;16.80;99.90;;;;;;5012548;28;20018;-88
2022/10/24 04:41:18;;;;;;;6.88;3.90;;;16.80;99.90;;;;;;5012203;28;20030;-88
2022/10/24 04:43:43;;;;;;;5.13;4.10;;;16.80;99.90;;;;;;5012049;28;20395;-88
2022/10/24 04:46:09;;;;;;;6.72;3.58;;;16.80;99.90;;;;;;5027514;28;20029;-88
2022/10/24 04:48:35;;;;;;;6.47;4.35;;;16.70;99.90;;;;;;5011021;28;20549;-88
2022/10/24 04:51:01;;;;;;;6.90;3.72;;;16.60;99.90;;;;;;5012466;28;20472;-88
2022/10/24 04:53:26;;;;;;;5.35;3.85;;;16.70;99.90;;;;;;5012555;28;20373;-88
2022/10/24 04:55:52;;;;;;;5.32;4.00;;;16.70;99.90;;;;;;5010677;28;20573;-88
2022/10/24 04:58:18;;;;;;;6.55;4.00;;;16.70;99.90;;;;;;5011063;28;20022;-88
2022/10/24 05:00:47;;;;;;;7.50;4.40;;;16.50;99.90;;;;;;5010655;28;20507;-88
2022/10/24 05:03:13;;;;;;;7.03;4.43;;;16.40;99.90;;;;;;5015490;28;20069;-88
2022/10/24 05:05:39;;;;;;;9.73;4.40;;;16.20;99.90;;;;;;5016491;28;20026;-88
2022/10/24 05:08:04;;;;;;;9.32;4.38;;;16.20;99.90;;;;;;5014795;28;20407;-88
2022/10/24 05:10:30;;;;;;;6.65;4.25;;;16.10;99.90;;;;;;5014771;28;20040;-88
2022/10/24 05:12:56;;;;;;;7.85;4.53;;;16.00;99.90;;;;;;5015942;28;20018;-88
2022/10/24 05:15:21;;;;;;;7.97;4.53;;;16.00;99.90;;;;;;5014688;28;20507;-88
2022/10/24 05:17:47;;;;;;;6.07;4.35;;;16.00;99.90;;;;;;5016147;28;20539;-88
2022/10/24 05:20:14;;;;;;;5.82;4.25;;;16.00;99.90;;;;;;5015991;28;20487;-88
2022/10/24 05:22:40;;;;;;;6.80;4.18;;;16.10;99.90;;;;;;5031209;28;20105;-88
2022/10/24 05:25:06;;;;;;;6.70;4.10;;;16.10;99.90;;;;;;5014101;28;20534;-88
2022/10/24 05:27:32;;;;;;;4.82;3.55;;;16.00;99.90;;;;;;5015809;28;20025;-88
2022/10/24 05:29:57;;;;;;;6.30;3.78;;;16.00;99.90;;;;;;5015612;28;20403;-87
2022/10/24 05:32:24;;;;;;;5.93;4.13;;;16.00;99.90;;;;;;5014142;28;20152;-88
2022/10/24 05:34:50;;;;;;;4.82;3.33;;;16.00;99.90;;;;;;5015887;28;20172;-88
2022/10/24 05:37:16;;;;;;;6.25;3.88;;;15.90;99.90;;;;;;5031012;28;20033;-88
2022/10/24 05:39:42;;;;;;;5.15;3.28;;;15.80;99.90;;;;;;5015443;28;20534;-88
2022/10/24 05:42:08;;;;;;;6.70;3.50;;;15.70;99.90;;;;;;5015580;28;20026;-88
2022/10/24 05:44:34;;;;;;;6.13;3.50;;;15.60;99.90;;;;;;5015649;28;20010;-88
2022/10/24 05:46:59;;;;;;;5.97;3.45;;;15.50;99.90;;;;;;5015478;28;20033;-88
2022/10/24 05:49:25;;;;;;;7.57;3.95;;;15.40;99.90;;;;;;5015574;28;20451;-88
2022/10/24 05:51:50;;;;;;;6.00;4.03;;;15.40;99.90;;;;;;5014187;28;20025;-88
2022/10/24 05:54:16;;;;;;;10.02;4.10;;;15.40;99.90;;;;;;5015323;28;20025;-87
2022/10/24 05:56:42;;;;;;;5.15;3.45;;;15.60;99.90;;;;;;5015690;28;20072;-88
2022/10/24 05:59:08;;;;;;;5.30;3.78;;;15.60;99.90;;;;;;5015357;28;20537;-87
2022/10/24 06:01:34;;;;;;;4.47;3.13;;;15.50;99.90;;;;;;5015118;28;20048;-87
2022/10/24 06:03:59;;;;;;;4.82;3.05;;;15.50;99.90;;;;;;5015347;28;20479;-87
2022/10/24 06:06:26;;;;;;;6.15;3.20;;;15.30;99.90;;;;;;5015025;28;20515;-86
2022/10/24 06:08:52;;;;;;;4.47;3.30;;;15.10;99.90;;;;;;5015061;28;20044;-87
2022/10/24 06:11:18;;;;;;;5.32;3.38;;;15.20;99.90;;;;;;5014933;28;20475;-87
2022/10/24 06:13:43;;;;;;;6.82;3.22;;;15.20;99.90;;;;;;5028740;28;20499;-88
2022/10/24 06:16:11;;;;;;;5.70;3.25;;;15.20;99.90;;;;;;5014881;28;20107;-87
2022/10/24 06:18:38;;;;;;;5.63;3.60;;;15.30;99.90;;;;;;5014949;28;20021;-87
2022/10/24 06:21:06;;;;;;;6.18;3.20;;;15.30;99.90;;;;;;5014694;28;20030;-87
2022/10/24 06:23:31;;;;;;;5.75;3.28;;;15.30;99.90;;;;;;5014551;28;20109;-87
2022/10/24 06:25:57;;;;;;;4.10;3.13;;;15.20;99.90;;;;;;5014808;28;20165;-87
2022/10/24 06:28:23;;;;;;;4.95;3.00;;;15.20;99.90;;;;;;5014750;28;20392;-87
2022/10/24 06:30:50;;;;;;;4.15;3.10;;;15.20;99.90;;;;;;5029623;28;20030;-87
2022/10/24 06:33:16;;;;;;;5.72;3.53;;;15.30;99.90;;;;;;5014398;28;20141;-88
2022/10/24 06:35:42;;;;;;;4.70;2.85;;;15.20;99.90;;;;;;5014910;28;20116;-87
2022/10/24 06:38:08;;;;;;;4.65;3.42;;;15.20;99.90;;;;;;5014595;28;20034;-87
2022/10/24 06:40:36;;;;;;;3.80;2.90;;;15.20;99.90;;;;;;5014500;28;20029;-87
2022/10/24 06:43:02;;;;;;;5.40;2.97;;;15.10;99.90;;;;;;5029413;28;20030;-87
2022/10/24 06:45:27;;;;;;;8.52;3.72;;;15.00;99.90;;;;;;5012898;28;20026;-87
2022/10/24 06:47:53;;;;;;;6.57;3.45;;;15.10;99.90;;;;;;5014452;28;20030;-87
2022/10/24 06:50:19;;;;;;;8.30;3.75;;;15.10;99.90;;;;;;5014217;28;20038;-87
2022/10/24 06:52:44;;;;;;;5.78;3.50;;;14.90;99.90;;;;;;5012885;28;20049;-87
2022/10/24 06:55:10;;;;;;;6.90;3.70;;;14.90;99.90;;;;;;5012986;28;20030;-87
2022/10/24 06:57:36;;;;;;;4.43;3.50;;;14.90;99.90;;;;;;5014373;28;20092;-87
2022/10/24 07:00:03;;;;;;;6.47;3.67;;;15.00;99.90;;;;;;5012774;28;20022;-87
2022/10/24 07:02:29;;;;;;;6.90;3.58;;;15.00;99.90;;;;;;5012587;28;20080;-88
2022/10/24 07:04:57;;;;;;;4.50;3.40;;;15.10;99.90;;;;;;5014287;28;20026;-87
2022/10/24 07:07:23;;;;;;;6.75;4.25;;;15.00;99.90;;;;;;5014123;28;20029;-87
2022/10/24 07:09:54;;;;;;;7.32;3.90;;;15.20;99.90;;;;;;5013687;28;20030;-88
2022/10/24 07:12:20;;;;;;;7.53;3.97;;;14.90;99.90;;;;;;5012325;28;20172;-87
2022/10/24 07:14:47;;;;;;;6.97;4.15;;;15.10;99.90;;;;;;5014013;28;20026;-87
2022/10/24 07:17:13;;;;;;;6.18;4.05;;;15.20;99.90;;;;;;5013542;28;20030;-87
2022/10/24 07:19:39;;;;;;;6.07;3.95;;;15.10;99.90;;;;;;5028429;28;20065;-87
2022/10/24 07:22:05;;;;;;;6.28;4.13;;;15.30;99.90;;;;;;5012438;28;20030;-87
2022/10/24 07:24:31;;;;;;;7.60;4.00;;;15.30;99.90;;;;;;5028267;28;20133;-87
2022/10/24 07:26:57;;;;;;;8.25;4.32;;;15.40;99.90;;;;;;5013904;28;20025;-88
2022/10/24 07:29:22;;;;;;;6.18;3.55;;;15.30;99.90;;;;;;5013781;28;20076;-88
2022/10/24 07:31:48;;;;;;;6.32;4.18;;;15.50;99.90;;;;;;5011956;28;20483;-88
2022/10/24 07:34:14;;;;;;;8.60;4.53;;;15.30;99.90;;;;;;5011901;28;20018;-88
2022/10/24 07:36:39;;;;;;;5.75;4.20;;;15.30;99.90;;;;;;5013824;28;20464;-88
2022/10/24 07:39:05;;;;;;;6.85;4.15;;;15.50;99.90;;;;;;5013623;28;20026;-88
2022/10/24 07:41:32;;;;;;;7.82;4.45;;;15.60;99.90;;;;;;5012754;28;20037;-88
2022/10/24 07:44:01;;;;;;;6.28;4.00;;;15.80;99.90;;;;;;5028640;28;20117;-88
2022/10/24 07:46:26;;;;;;;7.15;4.03;;;16.20;99.90;;;;;;5013025;28;20022;-88
2022/10/24 07:48:53;;;;;;;7.38;3.58;;;16.40;99.90;;;;;;5013057;28;20025;-88
2022/10/24 07:51:20;;;;;;;8.50;3.97;;;16.40;99.90;;;;;;5013303;28;20026;-88
2022/10/24 07:53:46;;;;;;;6.30;3.80;;;16.50;99.90;;;;;;5013321;28;20026;-88
2022/10/24 07:56:14;;;;;;;5.07;3.65;;;16.80;99.90;;;;;;5011798;28;20480;-88
2022/10/24 07:58:41;;;;;;;5.43;3.53;;;17.00;99.90;;;;;;5013310;28;20026;-88
2022/10/24 08:01:10;;;;;;;6.72;3.72;;;17.20;99.90;;;;;;5011315;28;20125;-88
2022/10/24 08:03:36;;;;;;;4.22;3.38;;;17.20;99.90;;;;;;5012732;28;20075;-88
2022/10/24 08:06:11;;;;;;;6.15;3.80;;;17.30;99.90;;;;;;5013024;28;20022;-88
2022/10/24 08:08:37;;;;;;;9.20;4.10;;;17.20;99.90;;;;;;5013092;28;20480;-88
2022/10/24 08:11:11;;;;;;;8.98;4.22;;;17.30;99.90;;;;;;5012713;28;20080;-89
2022/10/24 08:13:38;;;;;;;6.82;4.40;;;17.60;99.90;;;;;;5011540;28;20026;-89
2022/10/24 08:16:08;;;;;;;13.52;5.45;;;17.50;99.90;;;;;;5027850;28;20048;-89
2022/10/24 08:18:35;;;;;;;7.90;5.18;;;17.70;99.90;;;;;;5012892;28;20105;-89
2022/10/24 08:21:04;;;;;;;9.10;6.30;;;20.10;99.90;;;;;;5012664;28;20030;-89
2022/10/24 08:23:31;;;;;;;10.38;5.72;;;22.30;99.90;;;;;;5011707;28;20041;-89
2022/10/24 08:25:57;;;;;;;12.95;6.15;;;23.60;99.90;;;;;;5012703;28;20046;-90
2022/10/24 08:28:23;;;;;;;15.07;6.72;;;24.30;99.90;;;;;;5011753;28;20024;-90
2022/10/24 08:30:56;;;;;;;12.98;6.18;;;23.80;99.90;;;;;;5011141;28;20033;-89
2022/10/24 08:33:22;;;;;;;17.35;6.90;;;25.00;99.90;;;;;;5027558;28;20045;-90
2022/10/24 08:35:47;;;;;;;12.95;6.57;;;23.00;99.90;;;;;;5012565;28;20025;-89
2022/10/24 08:38:13;;;;;;;12.77;7.30;;;20.60;99.90;;;;;;5011014;28;20109;-89
2022/10/24 08:40:39;;;;;;;12.02;6.78;;;19.80;99.90;;;;;;5011430;28;20052;-90
2022/10/24 08:43:05;;;;;;;13.05;6.28;;;19.40;99.90;;;;;;5012779;28;20025;-90
2022/10/24 08:45:52;;;;;;;9.90;6.50;;;19.50;99.90;;;;;;5012606;28;20018;-90
2022/10/24 08:48:26;;;;;;;11.35;6.03;;;19.20;99.90;;;;;;5011344;28;20032;-90
2022/10/24 08:50:59;;;;;;;8.88;5.25;;;19.30;99.90;;;;;;5027570;28;20034;-90
2022/10/24 08:53:28;;;;;;;8.70;5.80;;;19.40;99.90;;;;;;5012987;28;20033;-90
2022/10/24 08:55:57;;;;;;;11.00;5.85;;;18.80;99.90;;;;;;5011524;28;20036;-90
2022/10/24 08:58:34;;;;;;;14.70;7.18;;;18.50;99.90;;;;;;5012889;28;20114;-90
2022/10/24 09:01:03;;;;;;;8.43;5.05;;;18.80;99.90;;;;;;5012038;28;20030;-90
2022/10/24 09:03:39;;;;;;;8.70;5.55;;;19.30;99.90;;;;;;5013121;28;20026;-90
2022/10/24 09:06:27;;;;;;;8.85;5.28;;;21.00;99.90;;;;;;5011532;28;20118;-91
2022/10/24 09:08:55;;;;;;;11.25;5.65;;;21.50;99.90;;;;;;5011697;28;20026;-91
2022/10/24 09:11:47;;;;;;;10.63;5.75;;;21.60;99.90;;;;;;5012892;28;20116;-91
2022/10/24 09:14:18;;;;;;;10.75;6.38;;;21.70;99.90;;;;;;5013454;28;20084;-91
2022/10/24 09:16:52;;;;;;;12.85;6.43;;;21.90;99.90;;;;;;5012929;28;20471;-91
2022/10/24 09:19:21;;;;;;;10.55;5.70;;;21.60;99.90;;;;;;5013181;28;20030;-91
2022/10/24 09:21:47;;;;;;;12.98;7.47;;;21.30;99.90;;;;;;5013016;28;20041;-91
2022/10/24 09:24:22;;;;;;;10.88;5.82;;;20.60;99.90;;;;;;5028465;28;20030;-91
2022/10/24 09:26:48;;;;;;;13.00;6.50;;;20.30;99.90;;;;;;5013167;28;20033;-91
2022/10/24 09:29:14;;;;;;;16.08;7.10;;;20.10;99.90;;;;;;5028442;28;20029;-91
2022/10/24 09:31:40;;;;;;;12.35;6.47;;;20.00;99.90;;;;;;5027738;28;20511;-91
2022/10/24 09:34:09;;;;;;;8.73;5.18;;;19.90;99.90;;;;;;5011803;28;20058;-91
2022/10/24 09:36:36;;;;;;;14.63;6.47;;;20.20;99.90;;;;;;5011797;28;20030;-91
2022/10/24 09:39:29;;;;;;;13.68;6.60;;;20.20;99.90;;;;;;5028616;28;20125;-91
2022/10/24 09:41:56;;;;;;;12.23;7.03;;;20.20;99.90;;;;;;5012796;28;20048;-92
2022/10/24 09:44:42;;;;;;;12.20;6.00;;;20.20;99.90;;;;;;5013128;28;20014;-91
2022/10/24 09:47:23;;;;;;;11.52;6.18;;;20.30;99.90;;;;;;5012796;28;20032;-92
2022/10/24 09:49:49;;;;;;;11.07;6.72;;;20.50;99.90;;;;;;5016662;28;20025;-91
2022/10/24 09:52:26;;;;;;;15.35;6.47;;;20.60;99.90;;;;;;5016521;28;20038;-91
2022/10/24 09:55:17;;;;;;;11.68;6.80;;;20.70;99.90;;;;;;5015661;28;20029;-91
2022/10/24 09:57:43;;;;;;;13.90;6.10;;;20.70;99.90;;;;;;5016739;28;20100;-91
2022/10/24 10:00:26;;;;;;;16.92;7.45;;;20.70;99.90;;;;;;5016260;28;20030;-92
2022/10/24 10:03:02;;;;;;;15.45;7.20;;;20.90;99.90;;;;;;5016607;28;20022;-92
2022/10/24 10:05:59;;;;;;;15.07;6.70;;;21.00;99.90;;;;;;5016329;28;20033;-92
2022/10/24 10:08:34;;;;;;;12.32;7.10;;;21.00;99.90;;;;;;5031926;28;20029;-92
2022/10/24 10:11:09;;;;;;;9.13;5.25;;;21.20;99.90;;;;;;5016080;28;20100;-92
2022/10/24 10:13:48;;;;;;;12.10;5.65;;;21.30;99.90;;;;;;5015013;28;20026;-92
2022/10/24 10:16:27;;;;;;;9.98;6.07;;;21.30;99.90;;;;;;5014849;28;20538;-92
2022/10/24 10:19:16;;;;;;;8.80;5.57;;;21.30;99.90;;;;;;5031950;28;20038;-92
2022/10/24 10:21:59;;;;;;;9.20;5.55;;;21.40;99.90;;;;;;5016036;28;20097;-92
2022/10/24 10:24:37;;;;;;;10.75;5.60;;;21.60;99.90;;;;;;5031944;28;20287;-92
2022/10/24 10:27:23;;;;;;;9.98;5.00;;;21.50;99.90;;;;;;5016320;28;20102;-92
2022/10/24 10:29:49;;;;;;;7.38;4.45;;;21.50;99.90;;;;;;5031463;28;20128;-92
2022/10/24 10:32:35;;;;;;;9.80;5.40;;;21.50;99.90;;;;;;5031114;28;20076;-92
2022/10/24 10:35:12;;;;;;;9.95;4.88;;;21.80;99.90;;;;;;5015754;28;20033;-92
2022/10/24 10:37:52;;;;;;;10.27;5.15;;;21.70;99.90;;;;;;5031316;28;20026;-92
2022/10/24 10:40:30;;;;;;;17.30;5.38;;;21.80;99.90;;;;;;5030775;28;20559;-92
2022/10/24 10:43:14;;;;;;;10.23;5.20;;;21.90;99.90;;;;;;5013915;28;20025;-92
2022/10/24 10:45:49;;;;;;;9.27;4.07;;;22.00;99.90;;;;;;5015461;28;20105;-92
2022/10/24 10:48:53;;;;;;;7.38;4.25;;;21.80;99.90;;;;;;5031179;28;20047;-92
2022/10/24 10:51:37;;;;;;;7.78;4.15;;;21.90;99.90;;;;;;5011202;28;20053;-91
2022/10/24 10:54:20;;;;;;;8.57;3.40;;;21.80;99.90;;;;;;4994790;28;20037;-92
2022/10/24 10:57:01;;;;;;;12.88;3.90;;;22.00;99.90;;;;;;4995917;28;20476;-91
2022/10/24 10:59:38;;;;;;;6.40;3.57;;;22.00;99.60;;;;;;4995263;28;20022;-92
2022/10/24 11:02:19;;;;;;;7.93;3.55;;;21.80;99.50;;;;;;4994448;28;20019;-92
2022/10/24 11:05:02;;;;;;;10.02;2.88;;;22.00;99.90;;;;;;4995976;28;20030;-92
2022/10/24 11:07:55;;;;;;;6.53;2.90;;;22.00;99.20;;;;;;5012869;28;20026;-93
2022/10/24 11:10:25;;;;;;;4.15;2.85;;;22.00;99.90;;;;;;5015319;28;20029;-91
2022/10/24 11:12:54;;;;;;;8.18;2.97;;;22.20;98.20;;;;;;5014933;28;20030;-92
2022/10/24 11:15:27;;;;;;;4.97;2.63;;;22.10;98.60;;;;;;5014970;28;20034;-91
2022/10/24 11:18:09;;;;;;;5.35;3.38;;;22.10;99.50;;;;;;5030556;28;20029;-92
2022/10/24 11:20:45;;;;;;;8.50;3.13;;;22.30;99.50;;;;;;5014181;28;20176;-92
2022/10/24 11:23:33;;;;;;;5.65;2.42;;;22.30;98.20;;;;;;5030558;28;20030;-92
2022/10/24 11:26:30;;;;;;;6.95;2.60;;;22.30;98.60;;;;;;5013837;28;20061;-92
2022/10/24 11:29:12;;;;;;;6.57;3.05;;;22.30;98.80;;;;;;5007454;28;20038;-92
2022/10/24 11:31:48;;;;;;;7.75;3.35;;;22.40;98.10;;;;;;5013088;28;20022;-92
2022/10/24 11:34:27;;;;;;;5.93;2.45;;;22.30;98.20;;;;;;5014853;28;20511;-92
2022/10/24 11:37:03;;;;;;;8.07;2.88;;;22.30;98.20;;;;;;5029875;28;20029;-92
2022/10/24 11:39:41;;;;;;;6.53;2.65;;;22.40;97.30;;;;;;5014525;28;20056;-92
2022/10/24 11:42:14;;;;;;;9.35;3.25;;;22.40;96.60;;;;;;5014192;28;20044;-92
2022/10/24 11:44:45;;;;;;;7.70;2.85;;;22.40;97.00;;;;;;5014721;28;20164;-92
2022/10/24 11:47:23;;;;;;;9.75;2.58;;;22.30;98.10;;;;;;5013090;28;20029;-92
2022/10/24 11:50:04;;;;;;;8.43;2.72;;;22.30;97.20;;;;;;5010232;28;20034;-91
2022/10/24 11:52:43;;;;;;;17.27;2.97;;;22.40;98.00;;;;;;4994975;28;20027;-92
2022/10/24 11:55:41;;;;;;;8.55;2.95;;;22.50;97.30;;;;;;4994393;28;20108;-91
2022/10/24 11:58:16;;;;;;;8.13;2.90;;;22.60;96.80;;;;;;4998344;28;20035;-92
2022/10/24 12:00:50;;;;;;;6.95;2.38;;;22.70;97.10;;;;;;5010285;28;20480;-92
2022/10/24 12:03:49;;;;;;;6.53;2.53;;;22.70;96.00;;;;;;4994730;28;20046;-92
2022/10/24 12:06:52;;;;;;;7.03;2.53;;;22.60;96.30;;;;;;5000823;28;20101;-92
2022/10/24 12:09:42;;;;;;;5.80;2.45;;;22.40;96.20;;;;;;5013280;28;20027;-92
2022/10/24 12:12:26;;;;;;;7.18;2.75;;;22.20;96.50;;;;;;5013910;28;20026;-92
2022/10/24 12:15:01;;;;;;;5.22;2.35;;;22.20;97.10;;;;;;5014181;28;20026;-92
2022/10/24 12:17:44;;;;;;;4.50;2.13;;;22.30;97.30;;;;;;5012675;28;20112;-92
2022/10/24 12:20:16;;;;;;;6.88;1.85;;;22.20;96.90;;;;;;5029200;28;20060;-92
2022/10/24 12:22:43;;;;;;;3.90;1.88;;;22.40;97.70;;;;;;5014106;28;20022;-92
2022/10/24 12:25:32;;;;;;;5.07;1.83;;;22.40;97.00;;;;;;5013572;28;20038;-93
2022/10/24 12:28:01;;;;;;;3.05;1.63;;;22.50;96.10;;;;;;5014033;28;20033;-92
2022/10/24 12:30:30;;;;;;;3.28;1.77;;;22.50;95.10;;;;;;5013960;28;20037;-92
2022/10/24 12:33:24;;;;;;;4.97;2.30;;;22.70;95.40;;;;;;5023333;28;20034;-92
2022/10/24 12:35:55;;;;;;;5.97;1.92;;;22.60;94.70;;;;;;5012634;28;20026;-92
2022/10/24 12:38:26;;;;;;;3.30;2.20;;;22.60;94.50;;;;;;5014081;28;20030;-92
2022/10/24 12:41:04;;;;;;;4.18;1.88;;;22.70;94.30;;;;;;5013220;28;20025;-92
2022/10/24 12:43:42;;;;;;;4.82;2.30;;;22.70;94.50;;;;;;5013442;28;20029;-92
2022/10/24 12:46:13;;;;;;;4.10;1.85;;;22.60;94.30;;;;;;5012509;28;20026;-93
2022/10/24 12:48:55;;;;;;;3.05;1.70;;;22.70;94.60;;;;;;5013667;28;20467;-93
2022/10/24 12:51:32;;;;;;;4.35;1.60;;;22.80;94.70;;;;;;4994318;28;20053;-93
2022/10/24 12:54:12;;;;;;;2.92;1.38;;;22.80;94.10;;;;;;5009238;28;20041;-93
2022/10/24 12:56:52;;;;;;;3.25;1.60;;;22.80;94.90;;;;;;4994407;28;20036;-93
2022/10/24 12:59:23;;;;;;;2.40;1.53;;;22.70;94.60;;;;;;5009231;28;20022;-92
2022/10/24 13:02:11;;;;;;;6.57;2.00;;;22.80;94.90;;;;;;4993810;28;20257;-92
2022/10/24 13:04:55;;;;;;;8.63;2.50;;;22.80;94.20;;;;;;4993636;28;20026;-92
2022/10/24 13:07:39;;;;;;;6.25;1.92;;;22.80;94.50;;;;;;5025106;28;20026;-92